sensor_id;sensor_type;location;lat;lon;timestamp;P1;durP1;ratioP1;P2;durP2;ratioP2
64208;SDS011;50527;52.414;13.226;2023-05-14T00:01:09;8.40;;;3.50;;
64208;SDS011;50527;52.414;13.226;2023-05-14T00:03:34;9.00;;;3.65;;
64208;SDS011;50527;52.414;13.226;2023-05-14T00:06:01;8.68;;;3.10;;
64208;SDS011;50527;52.414;13.226;2023-05-14T00:08:26;8.45;;;3.80;;
64208;SDS011;50527;52.414;13.226;2023-05-14T00:10:53;8.65;;;3.35;;
64208;SDS011;50527;52.414;13.226;2023-05-14T00:13:18;7.60;;;3.63;;
64208;SDS011;50527;52.414;13.226;2023-05-14T00:15:43;7.15;;;3.33;;
64208;SDS011;50527;52.414;13.226;2023-05-14T00:18:09;8.95;;;3.42;;
64208;SDS011;50527;52.414;13.226;2023-05-14T00:20:36;10.02;;;3.67;;
64208;SDS011;50527;52.414;13.226;2023-05-14T00:23:01;7.35;;;3.50;;
64208;SDS011;50527;52.414;13.226;2023-05-14T00:25:27;8.45;;;3.30;;
64208;SDS011;50527;52.414;13.226;2023-05-14T00:27:52;11.80;;;3.65;;
64208;SDS011;50527;52.414;13.226;2023-05-14T00:30:18;7.15;;;3.25;;
64208;SDS011;50527;52.414;13.226;2023-05-14T00:32:44;8.95;;;3.30;;
64208;SDS011;50527;52.414;13.226;2023-05-14T00:35:09;8.70;;;3.25;;
64208;SDS011;50527;52.414;13.226;2023-05-14T00:37:35;8.18;;;3.33;;
64208;SDS011;50527;52.414;13.226;2023-05-14T00:40:01;8.82;;;3.63;;
64208;SDS011;50527;52.414;13.226;2023-05-14T00:42:27;7.88;;;3.35;;
64208;SDS011;50527;52.414;13.226;2023-05-14T00:44:53;7.43;;;3.13;;
64208;SDS011;50527;52.414;13.226;2023-05-14T00:47:18;8.23;;;3.05;;
64208;SDS011;50527;52.414;13.226;2023-05-14T00:49:44;9.52;;;3.28;;
64208;SDS011;50527;52.414;13.226;2023-05-14T00:52:09;10.35;;;3.50;;
64208;SDS011;50527;52.414;13.226;2023-05-14T00:54:35;6.90;;;3.30;;
64208;SDS011;50527;52.414;13.226;2023-05-14T00:57:01;6.65;;;3.28;;
64208;SDS011;50527;52.414;13.226;2023-05-14T00:59:28;6.82;;;3.53;;
64208;SDS011;50527;52.414;13.226;2023-05-14T01:01:54;6.88;;;3.17;;
64208;SDS011;50527;52.414;13.226;2023-05-14T01:04:20;8.40;;;3.40;;
64208;SDS011;50527;52.414;13.226;2023-05-14T01:07:07;6.88;;;3.30;;
64208;SDS011;50527;52.414;13.226;2023-05-14T01:15:38;8.68;;;3.28;;
64208;SDS011;50527;52.414;13.226;2023-05-14T01:18:06;7.90;;;3.22;;
64208;SDS011;50527;52.414;13.226;2023-05-14T01:20:34;10.60;;;3.22;;
64208;SDS011;50527;52.414;13.226;2023-05-14T01:23:00;11.13;;;3.60;;
64208;SDS011;50527;52.414;13.226;2023-05-14T01:25:26;9.50;;;3.30;;
64208;SDS011;50527;52.414;13.226;2023-05-14T01:27:55;6.35;;;3.30;;
64208;SDS011;50527;52.414;13.226;2023-05-14T01:30:25;8.45;;;3.30;;
64208;SDS011;50527;52.414;13.226;2023-05-14T01:32:55;7.65;;;3.60;;
64208;SDS011;50527;52.414;13.226;2023-05-14T01:35:25;6.03;;;2.65;;
64208;SDS011;50527;52.414;13.226;2023-05-14T01:37:53;7.05;;;2.85;;
64208;SDS011;50527;52.414;13.226;2023-05-14T01:40:20;8.55;;;3.03;;
64208;SDS011;50527;52.414;13.226;2023-05-14T01:42:47;6.75;;;2.72;;
64208;SDS011;50527;52.414;13.226;2023-05-14T01:45:15;8.25;;;3.22;;
64208;SDS011;50527;52.414;13.226;2023-05-14T01:47:41;8.15;;;3.13;;
64208;SDS011;50527;52.414;13.226;2023-05-14T01:50:07;10.02;;;3.17;;
64208;SDS011;50527;52.414;13.226;2023-05-14T01:52:32;7.13;;;3.00;;
64208;SDS011;50527;52.414;13.226;2023-05-14T01:54:58;7.93;;;3.38;;
64208;SDS011;50527;52.414;13.226;2023-05-14T01:57:24;7.88;;;2.92;;
64208;SDS011;50527;52.414;13.226;2023-05-14T01:59:49;7.82;;;2.88;;
64208;SDS011;50527;52.414;13.226;2023-05-14T02:02:15;5.63;;;2.78;;
64208;SDS011;50527;52.414;13.226;2023-05-14T02:04:40;5.78;;;2.95;;
64208;SDS011;50527;52.414;13.226;2023-05-14T02:07:06;6.32;;;2.75;;
64208;SDS011;50527;52.414;13.226;2023-05-14T02:09:31;7.20;;;2.70;;
64208;SDS011;50527;52.414;13.226;2023-05-14T02:11:57;7.18;;;2.75;;
64208;SDS011;50527;52.414;13.226;2023-05-14T02:14:22;10.80;;;2.78;;
64208;SDS011;50527;52.414;13.226;2023-05-14T02:16:48;13.05;;;3.17;;
64208;SDS011;50527;52.414;13.226;2023-05-14T02:19:14;5.70;;;2.70;;
64208;SDS011;50527;52.414;13.226;2023-05-14T02:21:40;9.32;;;3.28;;
64208;SDS011;50527;52.414;13.226;2023-05-14T02:24:05;5.78;;;3.00;;
64208;SDS011;50527;52.414;13.226;2023-05-14T02:26:31;9.10;;;2.80;;
64208;SDS011;50527;52.414;13.226;2023-05-14T02:29:14;7.05;;;2.75;;
64208;SDS011;50527;52.414;13.226;2023-05-14T02:31:40;6.22;;;2.70;;
64208;SDS011;50527;52.414;13.226;2023-05-14T02:34:05;7.00;;;2.67;;
64208;SDS011;50527;52.414;13.226;2023-05-14T02:36:31;4.72;;;2.47;;
64208;SDS011;50527;52.414;13.226;2023-05-14T02:38:57;6.88;;;3.15;;
64208;SDS011;50527;52.414;13.226;2023-05-14T02:41:23;7.35;;;2.60;;
64208;SDS011;50527;52.414;13.226;2023-05-14T02:43:48;6.35;;;2.67;;
64208;SDS011;50527;52.414;13.226;2023-05-14T02:46:14;5.70;;;2.88;;
64208;SDS011;50527;52.414;13.226;2023-05-14T02:48:39;7.80;;;2.90;;
64208;SDS011;50527;52.414;13.226;2023-05-14T02:51:05;5.90;;;2.72;;
64208;SDS011;50527;52.414;13.226;2023-05-14T02:53:31;6.35;;;2.92;;
64208;SDS011;50527;52.414;13.226;2023-05-14T02:55:57;6.30;;;2.80;;
64208;SDS011;50527;52.414;13.226;2023-05-14T02:58:22;5.07;;;2.65;;
64208;SDS011;50527;52.414;13.226;2023-05-14T03:00:48;6.13;;;2.80;;
64208;SDS011;50527;52.414;13.226;2023-05-14T03:03:13;4.97;;;2.67;;
64208;SDS011;50527;52.414;13.226;2023-05-14T03:05:39;6.68;;;2.90;;
64208;SDS011;50527;52.414;13.226;2023-05-14T03:08:04;4.95;;;2.58;;
64208;SDS011;50527;52.414;13.226;2023-05-14T03:10:30;5.80;;;2.63;;
64208;SDS011;50527;52.414;13.226;2023-05-14T03:12:56;5.03;;;2.50;;
64208;SDS011;50527;52.414;13.226;2023-05-14T03:15:22;7.72;;;2.90;;
64208;SDS011;50527;52.414;13.226;2023-05-14T03:17:47;8.18;;;2.72;;
64208;SDS011;50527;52.414;13.226;2023-05-14T03:20:13;5.93;;;2.50;;
64208;SDS011;50527;52.414;13.226;2023-05-14T03:22:38;6.07;;;2.83;;
64208;SDS011;50527;52.414;13.226;2023-05-14T03:25:04;7.38;;;3.08;;
64208;SDS011;50527;52.414;13.226;2023-05-14T03:27:30;7.30;;;2.88;;
64208;SDS011;50527;52.414;13.226;2023-05-14T03:29:55;5.18;;;2.63;;
64208;SDS011;50527;52.414;13.226;2023-05-14T03:32:21;5.75;;;2.53;;
64208;SDS011;50527;52.414;13.226;2023-05-14T03:34:46;5.85;;;2.67;;
64208;SDS011;50527;52.414;13.226;2023-05-14T03:37:12;6.53;;;2.50;;
64208;SDS011;50527;52.414;13.226;2023-05-14T03:39:37;13.52;;;2.67;;
64208;SDS011;50527;52.414;13.226;2023-05-14T03:42:03;5.38;;;2.60;;
64208;SDS011;50527;52.414;13.226;2023-05-14T03:44:28;5.65;;;2.35;;
64208;SDS011;50527;52.414;13.226;2023-05-14T03:46:54;5.53;;;2.65;;
64208;SDS011;50527;52.414;13.226;2023-05-14T03:49:20;6.65;;;2.90;;
64208;SDS011;50527;52.414;13.226;2023-05-14T03:51:45;4.90;;;2.45;;
64208;SDS011;50527;52.414;13.226;2023-05-14T03:54:11;5.30;;;2.55;;
64208;SDS011;50527;52.414;13.226;2023-05-14T03:56:36;5.78;;;2.47;;
64208;SDS011;50527;52.414;13.226;2023-05-14T03:59:02;4.72;;;2.55;;
64208;SDS011;50527;52.414;13.226;2023-05-14T04:01:27;4.43;;;2.42;;
64208;SDS011;50527;52.414;13.226;2023-05-14T04:03:53;8.13;;;2.60;;
64208;SDS011;50527;52.414;13.226;2023-05-14T04:06:18;6.10;;;2.83;;
64208;SDS011;50527;52.414;13.226;2023-05-14T04:08:44;5.00;;;2.47;;
64208;SDS011;50527;52.414;13.226;2023-05-14T04:11:09;6.78;;;2.40;;
64208;SDS011;50527;52.414;13.226;2023-05-14T04:13:35;5.32;;;2.22;;
64208;SDS011;50527;52.414;13.226;2023-05-14T04:16:00;5.65;;;2.38;;
64208;SDS011;50527;52.414;13.226;2023-05-14T04:18:26;4.25;;;1.92;;
64208;SDS011;50527;52.414;13.226;2023-05-14T04:20:51;6.10;;;2.50;;
64208;SDS011;50527;52.414;13.226;2023-05-14T04:23:17;8.00;;;2.63;;
64208;SDS011;50527;52.414;13.226;2023-05-14T04:25:42;4.20;;;2.17;;
64208;SDS011;50527;52.414;13.226;2023-05-14T04:28:08;3.97;;;2.30;;
64208;SDS011;50527;52.414;13.226;2023-05-14T04:30:33;4.30;;;2.25;;
64208;SDS011;50527;52.414;13.226;2023-05-14T04:32:58;5.38;;;2.33;;
64208;SDS011;50527;52.414;13.226;2023-05-14T04:35:24;4.68;;;2.40;;
64208;SDS011;50527;52.414;13.226;2023-05-14T04:37:49;7.47;;;2.78;;
64208;SDS011;50527;52.414;13.226;2023-05-14T04:40:15;5.35;;;2.67;;
64208;SDS011;50527;52.414;13.226;2023-05-14T04:42:41;7.13;;;2.40;;
64208;SDS011;50527;52.414;13.226;2023-05-14T04:45:07;6.05;;;2.20;;
64208;SDS011;50527;52.414;13.226;2023-05-14T04:47:33;6.28;;;2.25;;
64208;SDS011;50527;52.414;13.226;2023-05-14T04:49:59;3.75;;;2.05;;
64208;SDS011;50527;52.414;13.226;2023-05-14T04:52:24;5.22;;;2.40;;
64208;SDS011;50527;52.414;13.226;2023-05-14T04:54:50;9.65;;;2.15;;
64208;SDS011;50527;52.414;13.226;2023-05-14T04:57:15;8.77;;;2.10;;
64208;SDS011;50527;52.414;13.226;2023-05-14T04:59:41;6.47;;;2.28;;
64208;SDS011;50527;52.414;13.226;2023-05-14T05:02:06;3.83;;;2.25;;
64208;SDS011;50527;52.414;13.226;2023-05-14T05:04:32;4.10;;;2.00;;
64208;SDS011;50527;52.414;13.226;2023-05-14T05:06:57;8.13;;;1.95;;
64208;SDS011;50527;52.414;13.226;2023-05-14T05:09:23;6.95;;;2.30;;
64208;SDS011;50527;52.414;13.226;2023-05-14T05:11:48;5.07;;;2.20;;
64208;SDS011;50527;52.414;13.226;2023-05-14T05:14:14;7.03;;;2.22;;
64208;SDS011;50527;52.414;13.226;2023-05-14T05:16:39;4.40;;;2.17;;
64208;SDS011;50527;52.414;13.226;2023-05-14T05:19:05;5.78;;;2.20;;
64208;SDS011;50527;52.414;13.226;2023-05-14T05:21:30;3.95;;;1.70;;
64208;SDS011;50527;52.414;13.226;2023-05-14T05:23:56;3.67;;;1.83;;
64208;SDS011;50527;52.414;13.226;2023-05-14T05:26:21;4.90;;;1.88;;
64208;SDS011;50527;52.414;13.226;2023-05-14T05:28:48;5.30;;;1.70;;
64208;SDS011;50527;52.414;13.226;2023-05-14T05:31:13;5.47;;;1.90;;
64208;SDS011;50527;52.414;13.226;2023-05-14T05:33:39;5.38;;;2.20;;
64208;SDS011;50527;52.414;13.226;2023-05-14T05:36:05;4.57;;;1.70;;
64208;SDS011;50527;52.414;13.226;2023-05-14T05:38:30;5.35;;;1.80;;
64208;SDS011;50527;52.414;13.226;2023-05-14T05:40:56;4.20;;;1.40;;
64208;SDS011;50527;52.414;13.226;2023-05-14T05:43:21;4.55;;;1.55;;
64208;SDS011;50527;52.414;13.226;2023-05-14T05:45:47;4.75;;;1.92;;
64208;SDS011;50527;52.414;13.226;2023-05-14T05:48:12;4.47;;;1.55;;
64208;SDS011;50527;52.414;13.226;2023-05-14T05:50:38;3.85;;;1.50;;
64208;SDS011;50527;52.414;13.226;2023-05-14T05:53:03;7.43;;;1.80;;
64208;SDS011;50527;52.414;13.226;2023-05-14T05:55:29;3.92;;;1.73;;
64208;SDS011;50527;52.414;13.226;2023-05-14T05:57:54;7.72;;;1.77;;
64208;SDS011;50527;52.414;13.226;2023-05-14T06:00:20;6.72;;;1.95;;
64208;SDS011;50527;52.414;13.226;2023-05-14T06:02:46;5.25;;;1.60;;
64208;SDS011;50527;52.414;13.226;2023-05-14T06:05:11;7.68;;;1.30;;
64208;SDS011;50527;52.414;13.226;2023-05-14T06:07:37;7.38;;;1.80;;
64208;SDS011;50527;52.414;13.226;2023-05-14T06:10:03;4.97;;;1.70;;
64208;SDS011;50527;52.414;13.226;2023-05-14T06:12:29;7.05;;;1.70;;
64208;SDS011;50527;52.414;13.226;2023-05-14T06:14:54;6.03;;;1.70;;
64208;SDS011;50527;52.414;13.226;2023-05-14T06:17:21;5.93;;;1.80;;
64208;SDS011;50527;52.414;13.226;2023-05-14T06:19:50;3.17;;;1.55;;
64208;SDS011;50527;52.414;13.226;2023-05-14T06:22:17;5.57;;;1.80;;
64208;SDS011;50527;52.414;13.226;2023-05-14T06:24:42;5.43;;;2.05;;
64208;SDS011;50527;52.414;13.226;2023-05-14T06:27:08;7.15;;;1.70;;
64208;SDS011;50527;52.414;13.226;2023-05-14T06:29:35;4.38;;;1.55;;
64208;SDS011;50527;52.414;13.226;2023-05-14T06:32:01;5.68;;;1.70;;
64208;SDS011;50527;52.414;13.226;2023-05-14T06:34:27;5.05;;;1.73;;
64208;SDS011;50527;52.414;13.226;2023-05-14T06:36:53;2.80;;;1.55;;
64208;SDS011;50527;52.414;13.226;2023-05-14T06:39:19;10.88;;;1.55;;
64208;SDS011;50527;52.414;13.226;2023-05-14T06:41:44;4.40;;;1.40;;
64208;SDS011;50527;52.414;13.226;2023-05-14T06:44:10;5.53;;;1.55;;
64208;SDS011;50527;52.414;13.226;2023-05-14T06:46:35;7.18;;;1.63;;
64208;SDS011;50527;52.414;13.226;2023-05-14T06:49:01;2.30;;;1.25;;
64208;SDS011;50527;52.414;13.226;2023-05-14T06:51:27;4.80;;;1.70;;
64208;SDS011;50527;52.414;13.226;2023-05-14T06:53:53;2.60;;;1.40;;
64208;SDS011;50527;52.414;13.226;2023-05-14T06:56:19;4.30;;;1.88;;
64208;SDS011;50527;52.414;13.226;2023-05-14T06:58:45;3.40;;;1.55;;
64208;SDS011;50527;52.414;13.226;2023-05-14T07:01:11;4.38;;;1.42;;
64208;SDS011;50527;52.414;13.226;2023-05-14T07:03:37;5.57;;;1.50;;
64208;SDS011;50527;52.414;13.226;2023-05-14T07:06:03;4.03;;;1.58;;
64208;SDS011;50527;52.414;13.226;2023-05-14T07:08:28;5.50;;;1.88;;
64208;SDS011;50527;52.414;13.226;2023-05-14T07:10:54;3.17;;;1.55;;
64208;SDS011;50527;52.414;13.226;2023-05-14T07:13:21;2.70;;;1.63;;
64208;SDS011;50527;52.414;13.226;2023-05-14T07:15:46;3.53;;;1.50;;
64208;SDS011;50527;52.414;13.226;2023-05-14T07:18:12;3.20;;;1.60;;
64208;SDS011;50527;52.414;13.226;2023-05-14T07:20:37;2.53;;;1.50;;
64208;SDS011;50527;52.414;13.226;2023-05-14T07:23:03;3.70;;;1.65;;
64208;SDS011;50527;52.414;13.226;2023-05-14T07:25:28;6.30;;;1.63;;
64208;SDS011;50527;52.414;13.226;2023-05-14T07:27:54;9.52;;;1.83;;
64208;SDS011;50527;52.414;13.226;2023-05-14T07:30:19;3.08;;;1.35;;
64208;SDS011;50527;52.414;13.226;2023-05-14T07:32:45;5.22;;;1.65;;
64208;SDS011;50527;52.414;13.226;2023-05-14T07:35:10;4.93;;;1.38;;
64208;SDS011;50527;52.414;13.226;2023-05-14T07:37:36;3.63;;;1.55;;
64208;SDS011;50527;52.414;13.226;2023-05-14T07:40:02;3.25;;;1.40;;
64208;SDS011;50527;52.414;13.226;2023-05-14T07:42:27;3.75;;;1.50;;
64208;SDS011;50527;52.414;13.226;2023-05-14T07:44:53;2.75;;;1.40;;
64208;SDS011;50527;52.414;13.226;2023-05-14T07:47:18;2.70;;;1.33;;
64208;SDS011;50527;52.414;13.226;2023-05-14T07:49:47;3.97;;;1.35;;
64208;SDS011;50527;52.414;13.226;2023-05-14T07:52:12;3.35;;;1.25;;
64208;SDS011;50527;52.414;13.226;2023-05-14T07:54:38;5.60;;;1.23;;
64208;SDS011;50527;52.414;13.226;2023-05-14T07:57:03;4.35;;;1.40;;
64208;SDS011;50527;52.414;13.226;2023-05-14T07:59:29;3.45;;;1.40;;
64208;SDS011;50527;52.414;13.226;2023-05-14T08:01:55;5.07;;;1.50;;
64208;SDS011;50527;52.414;13.226;2023-05-14T08:04:20;2.15;;;1.17;;
64208;SDS011;50527;52.414;13.226;2023-05-14T08:06:47;3.28;;;1.30;;
64208;SDS011;50527;52.414;13.226;2023-05-14T08:09:13;6.13;;;1.50;;
64208;SDS011;50527;52.414;13.226;2023-05-14T08:11:38;5.00;;;1.55;;
64208;SDS011;50527;52.414;13.226;2023-05-14T08:14:03;3.88;;;1.50;;
64208;SDS011;50527;52.414;13.226;2023-05-14T08:16:29;2.60;;;1.05;;
64208;SDS011;50527;52.414;13.226;2023-05-14T08:18:55;3.47;;;1.10;;
64208;SDS011;50527;52.414;13.226;2023-05-14T08:21:20;2.30;;;1.15;;
64208;SDS011;50527;52.414;13.226;2023-05-14T08:23:46;6.03;;;1.33;;
64208;SDS011;50527;52.414;13.226;2023-05-14T08:26:11;2.40;;;1.17;;
64208;SDS011;50527;52.414;13.226;2023-05-14T08:28:37;1.70;;;1.00;;
64208;SDS011;50527;52.414;13.226;2023-05-14T08:31:02;5.07;;;1.30;;
64208;SDS011;50527;52.414;13.226;2023-05-14T08:33:28;4.45;;;1.00;;
64208;SDS011;50527;52.414;13.226;2023-05-14T08:35:53;3.63;;;1.00;;
64208;SDS011;50527;52.414;13.226;2023-05-14T08:38:20;3.35;;;1.10;;
64208;SDS011;50527;52.414;13.226;2023-05-14T08:40:48;1.77;;;1.15;;
64208;SDS011;50527;52.414;13.226;2023-05-14T08:43:20;2.17;;;1.10;;
64208;SDS011;50527;52.414;13.226;2023-05-14T08:45:49;3.70;;;1.10;;
64208;SDS011;50527;52.414;13.226;2023-05-14T08:48:21;3.92;;;1.15;;
64208;SDS011;50527;52.414;13.226;2023-05-14T08:50:47;3.85;;;0.95;;
64208;SDS011;50527;52.414;13.226;2023-05-14T08:53:13;2.00;;;1.10;;
64208;SDS011;50527;52.414;13.226;2023-05-14T08:55:38;4.68;;;1.30;;
64208;SDS011;50527;52.414;13.226;2023-05-14T08:58:04;6.35;;;1.20;;
64208;SDS011;50527;52.414;13.226;2023-05-14T09:00:29;3.00;;;1.00;;
64208;SDS011;50527;52.414;13.226;2023-05-14T09:02:55;2.08;;;1.13;;
64208;SDS011;50527;52.414;13.226;2023-05-14T09:05:21;4.32;;;1.00;;
64208;SDS011;50527;52.414;13.226;2023-05-14T09:07:48;3.55;;;1.10;;
64208;SDS011;50527;52.414;13.226;2023-05-14T09:10:14;2.15;;;0.82;;
64208;SDS011;50527;52.414;13.226;2023-05-14T09:12:40;2.42;;;0.80;;
64208;SDS011;50527;52.414;13.226;2023-05-14T09:15:05;8.02;;;1.00;;
64208;SDS011;50527;52.414;13.226;2023-05-14T09:17:31;7.00;;;1.40;;
64208;SDS011;50527;52.414;13.226;2023-05-14T09:19:58;6.55;;;1.00;;
64208;SDS011;50527;52.414;13.226;2023-05-14T09:22:23;1.60;;;0.90;;
64208;SDS011;50527;52.414;13.226;2023-05-14T09:25:05;4.38;;;1.10;;
64208;SDS011;50527;52.414;13.226;2023-05-14T09:27:33;3.08;;;1.20;;
64208;SDS011;50527;52.414;13.226;2023-05-14T09:30:03;2.42;;;0.90;;
64208;SDS011;50527;52.414;13.226;2023-05-14T09:32:34;1.70;;;0.80;;
64208;SDS011;50527;52.414;13.226;2023-05-14T09:35:08;4.00;;;1.20;;
64208;SDS011;50527;52.414;13.226;2023-05-14T09:37:39;7.38;;;1.10;;
64208;SDS011;50527;52.414;13.226;2023-05-14T09:40:06;5.55;;;1.00;;
64208;SDS011;50527;52.414;13.226;2023-05-14T09:42:35;2.22;;;1.00;;
64208;SDS011;50527;52.414;13.226;2023-05-14T09:45:01;2.58;;;0.90;;
64208;SDS011;50527;52.414;13.226;2023-05-14T09:47:29;4.07;;;0.77;;
64208;SDS011;50527;52.414;13.226;2023-05-14T09:49:56;1.90;;;0.75;;
64208;SDS011;50527;52.414;13.226;2023-05-14T09:52:22;2.78;;;1.00;;
64208;SDS011;50527;52.414;13.226;2023-05-14T09:54:49;3.30;;;0.93;;
64208;SDS011;50527;52.414;13.226;2023-05-14T09:57:16;5.13;;;1.00;;
64208;SDS011;50527;52.414;13.226;2023-05-14T09:59:41;4.80;;;1.10;;
64208;SDS011;50527;52.414;13.226;2023-05-14T10:02:08;7.07;;;1.25;;
64208;SDS011;50527;52.414;13.226;2023-05-14T10:04:44;2.95;;;1.02;;
64208;SDS011;50527;52.414;13.226;2023-05-14T10:07:10;3.70;;;1.33;;
64208;SDS011;50527;52.414;13.226;2023-05-14T10:09:37;2.88;;;0.80;;
64208;SDS011;50527;52.414;13.226;2023-05-14T10:12:05;3.90;;;1.00;;
64208;SDS011;50527;52.414;13.226;2023-05-14T10:14:36;3.50;;;1.00;;
64208;SDS011;50527;52.414;13.226;2023-05-14T10:17:05;2.53;;;1.00;;
64208;SDS011;50527;52.414;13.226;2023-05-14T10:19:32;3.03;;;0.85;;
64208;SDS011;50527;52.414;13.226;2023-05-14T10:22:02;10.05;;;1.10;;
64208;SDS011;50527;52.414;13.226;2023-05-14T10:24:30;4.60;;;1.08;;
64208;SDS011;50527;52.414;13.226;2023-05-14T10:26:56;5.47;;;0.90;;
64208;SDS011;50527;52.414;13.226;2023-05-14T10:29:35;8.82;;;1.10;;
64208;SDS011;50527;52.414;13.226;2023-05-14T10:32:03;2.85;;;1.08;;
64208;SDS011;50527;52.414;13.226;2023-05-14T10:37:08;4.43;;;0.90;;
64208;SDS011;50527;52.414;13.226;2023-05-14T10:39:39;5.80;;;1.10;;
64208;SDS011;50527;52.414;13.226;2023-05-14T10:44:55;4.57;;;1.17;;
64208;SDS011;50527;52.414;13.226;2023-05-14T10:47:26;1.73;;;0.85;;
64208;SDS011;50527;52.414;13.226;2023-05-14T10:49:53;1.63;;;0.95;;
64208;SDS011;50527;52.414;13.226;2023-05-14T10:52:21;2.67;;;0.95;;
64208;SDS011;50527;52.414;13.226;2023-05-14T10:54:48;6.43;;;0.95;;
64208;SDS011;50527;52.414;13.226;2023-05-14T10:57:16;4.50;;;1.20;;
64208;SDS011;50527;52.414;13.226;2023-05-14T10:59:43;4.43;;;1.00;;
64208;SDS011;50527;52.414;13.226;2023-05-14T11:02:22;4.35;;;1.00;;
64208;SDS011;50527;52.414;13.226;2023-05-14T11:04:56;6.15;;;0.90;;
64208;SDS011;50527;52.414;13.226;2023-05-14T11:07:39;1.73;;;0.90;;
64208;SDS011;50527;52.414;13.226;2023-05-14T11:10:07;4.88;;;0.90;;
64208;SDS011;50527;52.414;13.226;2023-05-14T11:12:33;4.25;;;1.23;;
64208;SDS011;50527;52.414;13.226;2023-05-14T11:15:01;6.07;;;0.90;;
64208;SDS011;50527;52.414;13.226;2023-05-14T11:17:28;4.18;;;0.93;;
64208;SDS011;50527;52.414;13.226;2023-05-14T11:19:55;2.00;;;0.90;;
64208;SDS011;50527;52.414;13.226;2023-05-14T11:22:22;6.72;;;0.95;;
64208;SDS011;50527;52.414;13.226;2023-05-14T11:24:48;3.22;;;1.00;;
64208;SDS011;50527;52.414;13.226;2023-05-14T11:27:13;2.35;;;0.90;;
64208;SDS011;50527;52.414;13.226;2023-05-14T11:29:42;2.90;;;0.90;;
64208;SDS011;50527;52.414;13.226;2023-05-14T11:32:09;3.80;;;1.10;;
64208;SDS011;50527;52.414;13.226;2023-05-14T11:34:35;3.13;;;0.85;;
64208;SDS011;50527;52.414;13.226;2023-05-14T11:37:05;1.95;;;1.00;;
64208;SDS011;50527;52.414;13.226;2023-05-14T11:39:31;2.85;;;0.95;;
64208;SDS011;50527;52.414;13.226;2023-05-14T11:41:58;3.13;;;0.90;;
64208;SDS011;50527;52.414;13.226;2023-05-14T11:44:26;2.03;;;0.85;;
64208;SDS011;50527;52.414;13.226;2023-05-14T11:46:55;1.13;;;0.70;;
64208;SDS011;50527;52.414;13.226;2023-05-14T11:49:24;2.03;;;0.80;;
64208;SDS011;50527;52.414;13.226;2023-05-14T11:51:56;2.90;;;0.98;;
64208;SDS011;50527;52.414;13.226;2023-05-14T11:54:24;2.03;;;0.68;;
64208;SDS011;50527;52.414;13.226;2023-05-14T11:56:50;1.45;;;0.80;;
64208;SDS011;50527;52.414;13.226;2023-05-14T11:59:16;1.92;;;0.88;;
64208;SDS011;50527;52.414;13.226;2023-05-14T12:01:43;3.17;;;1.10;;
64208;SDS011;50527;52.414;13.226;2023-05-14T12:04:09;3.38;;;0.85;;
64208;SDS011;50527;52.414;13.226;2023-05-14T12:06:35;1.83;;;0.93;;
64208;SDS011;50527;52.414;13.226;2023-05-14T12:09:03;4.82;;;0.93;;
64208;SDS011;50527;52.414;13.226;2023-05-14T12:11:30;2.75;;;0.77;;
64208;SDS011;50527;52.414;13.226;2023-05-14T12:13:56;4.85;;;1.00;;
64208;SDS011;50527;52.414;13.226;2023-05-14T12:16:23;2.08;;;0.98;;
64208;SDS011;50527;52.414;13.226;2023-05-14T12:19:00;3.33;;;1.00;;
64208;SDS011;50527;52.414;13.226;2023-05-14T12:21:26;5.53;;;1.02;;
64208;SDS011;50527;52.414;13.226;2023-05-14T12:23:59;3.13;;;0.90;;
64208;SDS011;50527;52.414;13.226;2023-05-14T12:26:24;3.70;;;1.00;;
64208;SDS011;50527;52.414;13.226;2023-05-14T12:28:55;7.15;;;1.00;;
64208;SDS011;50527;52.414;13.226;2023-05-14T12:31:27;2.33;;;1.00;;
64208;SDS011;50527;52.414;13.226;2023-05-14T12:33:56;5.28;;;0.90;;
64208;SDS011;50527;52.414;13.226;2023-05-14T12:36:22;2.97;;;1.02;;
64208;SDS011;50527;52.414;13.226;2023-05-14T12:38:48;2.90;;;1.10;;
64208;SDS011;50527;52.414;13.226;2023-05-14T12:41:14;4.68;;;1.00;;
64208;SDS011;50527;52.414;13.226;2023-05-14T12:43:43;3.20;;;1.00;;
64208;SDS011;50527;52.414;13.226;2023-05-14T12:46:08;2.13;;;0.85;;
64208;SDS011;50527;52.414;13.226;2023-05-14T12:48:34;4.65;;;1.02;;
64208;SDS011;50527;52.414;13.226;2023-05-14T12:51:00;6.15;;;1.00;;
64208;SDS011;50527;52.414;13.226;2023-05-14T12:53:25;2.80;;;0.90;;
64208;SDS011;50527;52.414;13.226;2023-05-14T12:55:51;1.50;;;0.80;;
64208;SDS011;50527;52.414;13.226;2023-05-14T12:58:16;2.28;;;0.95;;
64208;SDS011;50527;52.414;13.226;2023-05-14T13:00:42;2.60;;;1.20;;
64208;SDS011;50527;52.414;13.226;2023-05-14T13:03:07;3.35;;;0.90;;
64208;SDS011;50527;52.414;13.226;2023-05-14T13:05:32;6.25;;;1.00;;
64208;SDS011;50527;52.414;13.226;2023-05-14T13:07:59;5.43;;;0.90;;
64208;SDS011;50527;52.414;13.226;2023-05-14T13:10:27;2.88;;;0.82;;
64208;SDS011;50527;52.414;13.226;2023-05-14T13:12:53;4.78;;;0.85;;
64208;SDS011;50527;52.414;13.226;2023-05-14T13:15:18;2.45;;;1.10;;
64208;SDS011;50527;52.414;13.226;2023-05-14T13:17:43;2.90;;;1.02;;
64208;SDS011;50527;52.414;13.226;2023-05-14T13:20:09;2.72;;;1.05;;
64208;SDS011;50527;52.414;13.226;2023-05-14T13:22:35;3.45;;;1.08;;
64208;SDS011;50527;52.414;13.226;2023-05-14T13:25:01;1.90;;;0.90;;
64208;SDS011;50527;52.414;13.226;2023-05-14T13:27:27;5.10;;;1.23;;
64208;SDS011;50527;52.414;13.226;2023-05-14T13:29:54;3.08;;;0.90;;
64208;SDS011;50527;52.414;13.226;2023-05-14T13:32:19;7.13;;;1.20;;
64208;SDS011;50527;52.414;13.226;2023-05-14T13:34:45;2.00;;;0.90;;
64208;SDS011;50527;52.414;13.226;2023-05-14T13:37:10;3.72;;;1.15;;
64208;SDS011;50527;52.414;13.226;2023-05-14T13:39:36;3.38;;;0.90;;
64208;SDS011;50527;52.414;13.226;2023-05-14T13:42:01;3.97;;;0.82;;
64208;SDS011;50527;52.414;13.226;2023-05-14T13:44:27;2.78;;;1.00;;
64208;SDS011;50527;52.414;13.226;2023-05-14T13:46:53;4.03;;;0.80;;
64208;SDS011;50527;52.414;13.226;2023-05-14T13:49:18;1.70;;;0.70;;
64208;SDS011;50527;52.414;13.226;2023-05-14T13:51:44;1.50;;;0.80;;
64208;SDS011;50527;52.414;13.226;2023-05-14T13:54:09;2.70;;;0.93;;
64208;SDS011;50527;52.414;13.226;2023-05-14T13:56:35;3.92;;;1.20;;
64208;SDS011;50527;52.414;13.226;2023-05-14T13:59:00;3.95;;;0.90;;
64208;SDS011;50527;52.414;13.226;2023-05-14T14:01:27;3.65;;;1.10;;
64208;SDS011;50527;52.414;13.226;2023-05-14T14:03:54;3.28;;;0.98;;
64208;SDS011;50527;52.414;13.226;2023-05-14T14:06:20;3.63;;;1.05;;
64208;SDS011;50527;52.414;13.226;2023-05-14T14:08:45;1.90;;;0.75;;
64208;SDS011;50527;52.414;13.226;2023-05-14T14:11:11;3.72;;;1.00;;
64208;SDS011;50527;52.414;13.226;2023-05-14T14:13:37;2.00;;;0.90;;
64208;SDS011;50527;52.414;13.226;2023-05-14T14:16:04;1.75;;;0.80;;
64208;SDS011;50527;52.414;13.226;2023-05-14T14:18:30;2.17;;;0.98;;
64208;SDS011;50527;52.414;13.226;2023-05-14T14:20:56;2.80;;;0.90;;
64208;SDS011;50527;52.414;13.226;2023-05-14T14:23:21;1.63;;;0.90;;
64208;SDS011;50527;52.414;13.226;2023-05-14T14:25:47;3.42;;;0.90;;
64208;SDS011;50527;52.414;13.226;2023-05-14T14:28:12;5.60;;;1.00;;
64208;SDS011;50527;52.414;13.226;2023-05-14T14:30:38;4.40;;;1.10;;
64208;SDS011;50527;52.414;13.226;2023-05-14T14:33:03;1.92;;;0.90;;
64208;SDS011;50527;52.414;13.226;2023-05-14T14:35:29;3.42;;;0.90;;
64208;SDS011;50527;52.414;13.226;2023-05-14T14:37:56;3.90;;;1.00;;
64208;SDS011;50527;52.414;13.226;2023-05-14T14:40:22;4.93;;;1.00;;